createdAt,value
2023-02-11T00:00:23.070Z,20.02
2023-02-11T00:03:15.973Z,19.73
2023-02-11T00:06:00.105Z,19.80
2023-02-11T00:08:32.891Z,18.92
2023-02-11T00:11:05.723Z,18.30
2023-02-11T00:13:38.463Z,18.58
2023-02-11T00:16:14.215Z,18.63
2023-02-11T00:18:48.386Z,20.10
2023-02-11T00:21:23.966Z,20.75
2023-02-11T00:23:58.704Z,20.17
2023-02-11T00:26:35.717Z,19.02
2023-02-11T00:29:09.931Z,17.50
2023-02-11T00:31:42.569Z,22.83
2023-02-11T00:34:15.465Z,18.92
2023-02-11T00:36:49.464Z,16.92
2023-02-11T00:39:22.232Z,18.00
2023-02-11T00:41:54.711Z,18.50
2023-02-11T00:44:27.691Z,18.58
2023-02-11T00:47:00.185Z,19.08
2023-02-11T00:49:33.078Z,20.27
2023-02-11T00:52:05.562Z,16.85
2023-02-11T00:54:41.514Z,20.77
2023-02-11T00:57:13.971Z,16.52
2023-02-11T00:59:47.025Z,19.35
2023-02-11T01:02:19.637Z,17.85
2023-02-11T01:04:52.507Z,20.33
2023-02-11T01:07:24.993Z,18.73
2023-02-11T01:09:58.072Z,19.83
2023-02-11T01:12:30.579Z,17.75
2023-02-11T01:15:04.906Z,18.00
2023-02-11T01:17:37.453Z,18.40
2023-02-11T01:20:17.441Z,19.15
2023-02-11T01:22:50.031Z,17.17
2023-02-11T01:25:22.800Z,21.05
2023-02-11T01:27:55.292Z,18.63
2023-02-11T01:30:28.069Z,15.93
2023-02-11T01:33:00.552Z,18.80
2023-02-11T01:35:33.343Z,17.67
2023-02-11T01:38:08.080Z,17.08
2023-02-11T01:40:40.879Z,17.30
2023-02-11T01:43:13.371Z,17.00
2023-02-11T01:45:49.117Z,15.70
2023-02-11T01:48:24.902Z,17.13
2023-02-11T01:51:10.954Z,15.52
2023-02-11T01:54:04.727Z,17.20
2023-02-11T01:57:02.954Z,15.68
2023-02-11T01:59:54.597Z,15.80
2023-02-11T02:02:43.246Z,15.15
2023-02-11T02:05:33.445Z,16.45
2023-02-11T02:08:19.652Z,14.48
2023-02-11T02:10:56.637Z,17.65
2023-02-11T02:13:32.301Z,16.65
2023-02-11T02:16:29.681Z,16.25
2023-02-11T02:19:47.114Z,15.57
2023-02-11T02:22:44.411Z,15.32
2023-02-11T02:25:50.309Z,15.32
2023-02-11T02:29:00.552Z,14.95
2023-02-11T02:31:39.214Z,14.25
2023-02-11T02:34:30.909Z,15.27
2023-02-11T02:37:17.248Z,12.50
2023-02-11T02:39:50.868Z,13.68
2023-02-11T02:42:24.796Z,12.68
2023-02-11T02:44:58.195Z,16.27
2023-02-11T02:47:30.977Z,14.07
2023-02-11T02:50:05.892Z,12.90
2023-02-11T02:53:06.605Z,14.70
2023-02-11T02:58:20.488Z,11.68
2023-02-11T03:01:08.542Z,12.10
2023-02-11T03:04:03.383Z,13.88
2023-02-11T03:07:02.863Z,14.80
2023-02-11T03:09:45.077Z,13.60
2023-02-11T03:12:18.466Z,14.90
2023-02-11T03:14:52.590Z,15.15
2023-02-11T03:17:26.381Z,12.15
2023-02-11T03:20:00.065Z,13.88
2023-02-11T03:22:55.758Z,14.57
2023-02-11T03:25:34.728Z,15.02
2023-02-11T03:28:30.872Z,14.65
2023-02-11T03:31:26.322Z,13.70
2023-02-11T03:34:12.649Z,16.55
2023-02-11T03:36:57.088Z,12.15
2023-02-11T03:39:43.062Z,15.98
2023-02-11T03:42:16.725Z,15.35
2023-02-11T03:44:59.210Z,15.77
2023-02-11T03:47:36.188Z,13.73
2023-02-11T03:50:11.403Z,14.93
2023-02-11T03:52:45.312Z,16.35
2023-02-11T03:55:20.437Z,16.30
2023-02-11T03:57:53.251Z,18.25
2023-02-11T04:00:33.446Z,15.35
2023-02-11T04:03:07.341Z,17.35
2023-02-11T04:05:40.620Z,16.83
2023-02-11T04:08:13.476Z,14.40
2023-02-11T04:10:46.017Z,14.20
2023-02-11T04:13:18.784Z,16.27
2023-02-11T04:15:51.636Z,17.30
2023-02-11T04:18:24.686Z,17.33
2023-02-11T04:20:57.129Z,15.65
2023-02-11T04:23:29.938Z,16.70
2023-02-11T04:26:02.453Z,19.20
2023-02-11T04:28:36.386Z,14.40
2023-02-11T04:31:10.731Z,16.52
2023-02-11T04:33:43.552Z,19.05
2023-02-11T04:36:16.046Z,17.77
2023-02-11T04:38:48.849Z,15.57
2023-02-11T04:41:21.338Z,14.43
2023-02-11T04:43:54.098Z,17.00
2023-02-11T04:46:26.639Z,19.00
2023-02-11T04:48:59.856Z,11.93
2023-02-11T04:51:32.565Z,17.63
2023-02-11T04:54:05.527Z,17.90
2023-02-11T04:56:39.101Z,15.15
2023-02-11T04:59:13.353Z,16.48
2023-02-11T05:01:45.838Z,14.57
2023-02-11T05:04:19.061Z,22.70
2023-02-11T05:06:51.608Z,19.90
2023-02-11T05:09:24.434Z,20.13
2023-02-11T05:11:56.963Z,17.30
2023-02-11T05:14:29.710Z,18.98
2023-02-11T05:17:02.245Z,18.70
2023-02-11T05:19:35.347Z,20.17
2023-02-11T05:22:07.805Z,22.13
2023-02-11T05:24:40.629Z,20.58
2023-02-11T05:27:13.121Z,19.08
2023-02-11T05:29:46.227Z,21.10
2023-02-11T05:32:18.729Z,20.33
2023-02-11T05:34:51.544Z,21.45
2023-02-11T05:37:24.452Z,18.83
2023-02-11T05:39:57.277Z,23.00
2023-02-11T05:42:29.758Z,18.25
2023-02-11T05:45:02.647Z,21.13
2023-02-11T05:47:35.156Z,18.10
2023-02-11T05:50:08.230Z,18.13
2023-02-11T05:52:40.801Z,21.85
2023-02-11T05:55:13.673Z,20.00
2023-02-11T05:57:46.128Z,22.25
2023-02-11T06:00:19.388Z,19.67
2023-02-11T06:02:51.951Z,17.50
2023-02-11T06:05:24.813Z,17.83
2023-02-11T06:07:57.315Z,18.05
2023-02-11T06:10:30.460Z,19.45
2023-02-11T06:13:03.268Z,19.55
2023-02-11T06:15:36.058Z,18.05
2023-02-11T06:18:09.673Z,22.45
2023-02-11T06:20:42.462Z,17.88
2023-02-11T06:23:14.934Z,21.90
2023-02-11T06:25:47.875Z,20.70
2023-02-11T06:28:20.636Z,21.50
2023-02-11T06:30:53.625Z,19.85
2023-02-11T06:33:26.202Z,25.92
2023-02-11T06:35:58.980Z,24.05
2023-02-11T06:38:31.506Z,19.77
2023-02-11T06:41:04.521Z,29.05
2023-02-11T06:43:37.206Z,16.85
2023-02-11T06:46:10.306Z,21.88
2023-02-11T06:48:44.837Z,21.30
2023-02-11T06:51:18.634Z,19.75
2023-02-11T06:53:51.144Z,17.83
2023-02-11T06:56:27.494Z,22.95
2023-02-11T06:59:00.766Z,21.00
2023-02-11T07:01:33.679Z,28.30
2023-02-11T07:04:06.886Z,21.13
2023-02-11T07:06:39.669Z,19.60
2023-02-11T07:09:12.205Z,26.27
2023-02-11T07:11:45.125Z,20.73
2023-02-11T07:14:17.698Z,17.40
2023-02-11T07:16:50.462Z,19.27
2023-02-11T07:19:22.971Z,22.35
2023-02-11T07:21:56.092Z,22.17
2023-02-11T07:24:28.612Z,23.52
2023-02-11T07:27:01.360Z,18.05
2023-02-11T07:29:33.882Z,21.13
2023-02-11T07:32:06.879Z,18.80
2023-02-11T07:34:39.630Z,21.98
2023-02-11T07:37:12.705Z,23.35
2023-02-11T07:39:45.160Z,21.30
2023-02-11T07:42:17.970Z,19.38
2023-02-11T07:44:50.764Z,23.48
2023-02-11T07:47:23.540Z,22.30
2023-02-11T07:49:56.752Z,23.73
2023-02-11T07:52:30.896Z,20.98
2023-02-11T07:55:04.939Z,22.65
2023-02-11T07:57:37.931Z,19.98
2023-02-11T08:00:11.255Z,21.45
2023-02-11T08:02:44.035Z,23.80
2023-02-11T08:05:16.691Z,21.85
2023-02-11T08:07:54.988Z,21.60
2023-02-11T08:10:27.452Z,23.80
2023-02-11T08:13:00.238Z,18.23
2023-02-11T08:15:32.730Z,23.00
2023-02-11T08:18:05.502Z,19.33
2023-02-11T08:20:37.999Z,17.88
2023-02-11T08:23:10.752Z,18.02
2023-02-11T08:25:43.292Z,20.92
2023-02-11T08:28:16.122Z,20.70
2023-02-11T08:30:48.929Z,19.92
2023-02-11T08:33:21.887Z,18.13
2023-02-11T08:35:54.428Z,24.63
2023-02-11T08:38:27.235Z,22.85
2023-02-11T08:41:00.733Z,22.70
2023-02-11T08:43:34.174Z,21.65
2023-02-11T08:46:06.696Z,23.45
2023-02-11T08:48:39.495Z,26.33
2023-02-11T08:51:19.083Z,21.80
2023-02-11T08:53:52.363Z,19.42
2023-02-11T08:56:25.494Z,22.42
2023-02-11T08:58:58.438Z,23.05
2023-02-11T09:01:31.986Z,20.00
2023-02-11T09:04:05.098Z,28.52
2023-02-11T09:06:37.609Z,23.13
2023-02-11T09:09:13.681Z,25.27
2023-02-11T09:11:46.418Z,23.90
2023-02-11T09:14:22.316Z,33.95
2023-02-11T09:16:54.840Z,22.63
2023-02-11T09:19:27.876Z,24.67
2023-02-11T09:22:01.366Z,23.23
2023-02-11T09:24:34.447Z,21.52
2023-02-11T09:27:07.025Z,27.98
2023-02-11T09:29:40.062Z,24.02
2023-02-11T09:32:12.745Z,25.90
2023-02-11T09:34:45.584Z,24.15
2023-02-11T09:37:18.082Z,25.30
2023-02-11T09:39:51.002Z,25.27
2023-02-11T09:43:01.776Z,24.25
2023-02-11T09:45:36.057Z,25.10
2023-02-11T09:48:14.453Z,23.13
2023-02-11T09:51:00.910Z,25.50
2023-02-11T09:53:40.044Z,26.35
2023-02-11T09:56:15.304Z,26.20
2023-02-11T09:58:47.790Z,22.83
2023-02-11T10:01:39.569Z,23.38
2023-02-11T10:04:38.665Z,24.50
2023-02-11T10:07:37.860Z,23.90
2023-02-11T10:10:25.108Z,23.92
2023-02-11T10:13:06.721Z,35.40
2023-02-11T10:16:03.832Z,28.77
2023-02-11T10:18:50.359Z,22.20
2023-02-11T10:22:09.871Z,28.80
2023-02-11T10:24:53.273Z,42.85
2023-02-11T10:27:32.728Z,17.40
2023-02-11T10:30:36.290Z,24.55
2023-02-11T10:33:28.419Z,25.75
2023-02-11T10:36:01.600Z,25.40
2023-02-11T10:38:34.191Z,26.60
2023-02-11T10:41:10.240Z,21.08
2023-02-11T10:43:43.014Z,18.80
2023-02-11T10:46:21.192Z,23.30
2023-02-11T10:48:54.296Z,21.73
2023-02-11T10:51:34.221Z,24.55
2023-02-11T10:54:19.559Z,23.33
2023-02-11T10:56:59.737Z,25.73
2023-02-11T10:59:40.478Z,24.02
2023-02-11T11:02:34.547Z,26.23
2023-02-11T11:05:17.937Z,24.67
2023-02-11T11:08:06.024Z,25.40
2023-02-11T11:10:47.034Z,26.13
2023-02-11T11:13:28.162Z,26.67
2023-02-11T11:16:17.610Z,25.70
2023-02-11T11:19:13.664Z,24.35
2023-02-11T11:21:54.304Z,20.65
2023-02-11T11:24:35.216Z,21.00
2023-02-11T11:27:16.917Z,23.90
2023-02-11T11:29:55.977Z,23.67
2023-02-11T11:32:32.936Z,24.15
2023-02-11T11:35:21.760Z,22.70
2023-02-11T11:38:01.393Z,22.35
2023-02-11T11:40:35.728Z,24.27
2023-02-11T11:43:14.172Z,21.95
2023-02-11T11:45:58.428Z,21.85
2023-02-11T11:48:40.385Z,20.17
2023-02-11T11:51:13.946Z,21.65
2023-02-11T11:54:08.523Z,23.77
2023-02-11T11:56:52.290Z,19.25
2023-02-11T11:59:24.800Z,23.95
2023-02-11T12:02:19.480Z,24.10
2023-02-11T12:05:03.564Z,25.13
2023-02-11T12:07:40.324Z,24.27
2023-02-11T12:10:12.785Z,34.05
2023-02-11T12:13:08.597Z,20.25
2023-02-11T12:15:55.467Z,24.08
2023-02-11T12:18:36.198Z,24.88
2023-02-11T12:24:23.890Z,21.80
2023-02-11T12:27:06.474Z,22.23
2023-02-11T12:29:58.103Z,26.70
2023-02-11T12:32:49.052Z,21.98
2023-02-11T12:35:37.220Z,16.95
2023-02-11T12:38:32.324Z,15.18
2023-02-11T12:41:50.520Z,17.77
2023-02-11T12:44:50.281Z,18.25
2023-02-11T12:48:10.390Z,25.02
2023-02-11T12:50:49.277Z,19.30
2023-02-11T12:53:31.062Z,17.83
2023-02-11T12:56:32.003Z,16.42
2023-02-11T12:59:14.233Z,16.98
2023-02-11T13:01:49.439Z,16.30
2023-02-11T13:04:29.417Z,18.10
2023-02-11T13:07:09.790Z,12.75
2023-02-11T13:09:49.195Z,14.48
2023-02-11T13:12:40.612Z,17.67
2023-02-11T13:15:15.508Z,18.08
2023-02-11T13:18:27.236Z,13.00
2023-02-11T13:21:15.283Z,17.02
2023-02-11T13:24:02.898Z,17.52
2023-02-11T13:27:12.694Z,13.93
2023-02-11T13:29:49.502Z,14.93
2023-02-11T13:32:22.320Z,13.63
2023-02-11T13:34:56.722Z,16.58
2023-02-11T13:37:38.727Z,14.82
2023-02-11T13:40:23.008Z,15.80
2023-02-11T13:42:59.020Z,12.32
2023-02-11T13:45:31.613Z,14.40
2023-02-11T13:48:17.867Z,15.13
2023-02-11T13:50:54.270Z,15.40
2023-02-11T13:53:28.153Z,13.23
2023-02-11T13:56:22.381Z,12.70
2023-02-11T13:58:55.239Z,14.57
2023-02-11T14:01:42.662Z,13.93
2023-02-11T14:04:43.124Z,16.80
2023-02-11T14:07:51.791Z,14.70
2023-02-11T14:10:42.772Z,16.15
2023-02-11T14:13:34.325Z,13.00
2023-02-11T14:16:17.067Z,10.15
2023-02-11T14:18:54.911Z,17.30
2023-02-11T14:21:27.677Z,15.38
2023-02-11T14:24:04.917Z,11.15
2023-02-11T14:26:53.224Z,19.58
2023-02-11T14:29:34.446Z,13.55
2023-02-11T14:32:16.100Z,12.57
2023-02-11T14:35:15.377Z,13.25
2023-02-11T14:38:09.403Z,11.38
2023-02-11T14:41:06.538Z,12.82
2023-02-11T14:43:54.741Z,12.70
2023-02-11T14:46:30.785Z,12.95
2023-02-11T14:49:05.883Z,13.20
2023-02-11T14:51:41.340Z,10.85
2023-02-11T14:54:23.519Z,8.13
2023-02-11T14:57:06.803Z,15.73
2023-02-11T14:59:40.825Z,8.77
2023-02-11T15:02:24.460Z,11.38
2023-02-11T15:05:26.197Z,15.00
2023-02-11T15:08:04.884Z,10.20
2023-02-11T15:10:42.581Z,12.68
2023-02-11T15:13:21.129Z,14.02
2023-02-11T15:15:57.828Z,9.32
2023-02-11T15:18:36.726Z,8.55
2023-02-11T15:21:10.623Z,10.55
2023-02-11T15:24:06.370Z,9.00
2023-02-11T15:26:39.135Z,8.18
2023-02-11T15:29:17.462Z,12.13
2023-02-11T15:32:08.004Z,10.45
2023-02-11T15:34:41.356Z,10.25
2023-02-11T15:37:29.821Z,8.27
2023-02-11T15:40:19.150Z,12.45
2023-02-11T15:42:59.321Z,10.87
2023-02-11T15:45:40.022Z,12.77
2023-02-11T15:48:38.308Z,13.52
2023-02-11T15:51:25.263Z,11.95
2023-02-11T15:54:00.201Z,9.32
2023-02-11T15:56:44.292Z,9.48
2023-02-11T15:59:40.716Z,11.88
2023-02-11T16:02:30.821Z,7.53
2023-02-11T16:07:51.955Z,12.63
2023-02-11T16:10:29.320Z,11.93
2023-02-11T16:13:08.096Z,8.95
2023-02-11T16:15:50.916Z,10.25
2023-02-11T16:18:37.824Z,11.27
2023-02-11T16:21:17.193Z,13.63
2023-02-11T16:23:55.099Z,11.48
2023-02-11T16:26:30.531Z,12.85
2023-02-11T16:29:12.891Z,11.60
2023-02-11T16:31:47.387Z,9.88
2023-02-11T16:34:24.099Z,11.63
2023-02-11T16:36:56.890Z,11.65
2023-02-11T16:39:29.398Z,12.88
2023-02-11T16:42:04.737Z,10.05
2023-02-11T16:44:39.246Z,12.60
2023-02-11T16:47:24.769Z,12.43
2023-02-11T16:49:58.703Z,9.27
2023-02-11T16:52:31.819Z,14.25
2023-02-11T16:55:06.150Z,10.77
2023-02-11T16:57:39.015Z,10.25
2023-02-11T17:00:15.905Z,10.45
2023-02-11T17:02:48.684Z,12.57
2023-02-11T17:05:23.060Z,9.40
2023-02-11T17:07:55.818Z,10.90
2023-02-11T17:10:28.817Z,9.82
2023-02-11T17:13:01.816Z,8.35
2023-02-11T17:15:34.498Z,11.50
2023-02-11T17:18:07.546Z,12.85
2023-02-11T17:20:40.553Z,13.20
2023-02-11T17:23:13.661Z,9.63
2023-02-11T17:25:46.191Z,9.27
2023-02-11T17:28:18.998Z,8.57
2023-02-11T17:30:51.570Z,11.57
2023-02-11T17:33:24.929Z,12.52
2023-02-11T17:35:57.443Z,11.02
2023-02-11T17:38:30.194Z,8.02
2023-02-11T17:41:04.742Z,13.35
2023-02-11T17:43:37.483Z,13.48
2023-02-11T17:46:10.274Z,8.95
2023-02-11T17:48:43.110Z,12.27
2023-02-11T17:51:33.336Z,9.65
2023-02-11T17:56:40.221Z,10.68
2023-02-11T17:59:14.283Z,11.60
2023-02-11T18:01:47.229Z,12.98
2023-02-11T18:04:20.306Z,5.35
2023-02-11T18:06:53.691Z,11.55
2023-02-11T18:09:27.154Z,13.80
2023-02-11T18:11:59.663Z,13.43
2023-02-11T18:14:33.917Z,9.18
2023-02-11T18:17:06.782Z,8.18
2023-02-11T18:19:39.573Z,9.13
2023-02-11T18:22:12.102Z,7.93
2023-02-11T18:24:44.913Z,11.90
2023-02-11T18:27:17.413Z,10.68
2023-02-11T18:29:50.616Z,8.60
2023-02-11T18:32:23.113Z,13.60
2023-02-11T18:34:55.871Z,10.85
2023-02-11T18:37:28.339Z,13.60
2023-02-11T18:40:01.107Z,10.93
2023-02-11T18:42:34.338Z,12.07
2023-02-11T18:45:12.987Z,7.65
2023-02-11T18:47:45.450Z,9.43
2023-02-11T18:50:18.694Z,8.45
2023-02-11T18:52:51.168Z,11.38
2023-02-11T18:55:26.064Z,10.35
2023-02-11T18:57:58.699Z,9.70
2023-02-11T19:00:31.463Z,10.32
2023-02-11T19:03:04.067Z,8.52
2023-02-11T19:05:48.713Z,7.32
2023-02-11T19:08:21.255Z,10.48
2023-02-11T19:10:54.079Z,9.23
2023-02-11T19:13:29.289Z,9.40
2023-02-11T19:16:08.682Z,8.98
2023-02-11T19:18:42.548Z,10.88
2023-02-11T19:21:15.281Z,10.27
2023-02-11T19:23:47.729Z,8.57
2023-02-11T19:26:27.344Z,8.65
2023-02-11T19:29:00.029Z,7.88
2023-02-11T19:31:32.905Z,9.25
2023-02-11T19:34:07.429Z,8.88
2023-02-11T19:36:41.185Z,9.63
2023-02-11T19:39:13.917Z,8.98
2023-02-11T19:41:46.945Z,4.90
2023-02-11T19:44:19.762Z,7.90
2023-02-11T19:46:53.442Z,6.85
2023-02-11T19:49:26.501Z,6.57
2023-02-11T19:51:59.425Z,6.20
2023-02-11T19:54:31.994Z,6.03
2023-02-11T19:57:04.803Z,7.75
2023-02-11T19:59:37.255Z,7.28
2023-02-11T20:02:13.303Z,7.32
2023-02-11T20:04:46.326Z,8.18
2023-02-11T20:07:19.091Z,9.38
2023-02-11T20:09:53.715Z,6.43
2023-02-11T20:12:26.534Z,8.52
2023-02-11T20:14:59.002Z,7.57
2023-02-11T20:17:32.043Z,6.68
2023-02-11T20:20:04.912Z,8.98
2023-02-11T20:22:37.686Z,10.85
2023-02-11T20:25:11.738Z,12.02
2023-02-11T20:27:44.477Z,11.63
2023-02-11T20:30:16.971Z,9.23
2023-02-11T20:32:50.938Z,8.85
2023-02-11T20:35:23.398Z,10.90
2023-02-11T20:37:56.190Z,9.40
2023-02-11T20:40:28.713Z,5.68
2023-02-11T20:43:01.712Z,8.05
2023-02-11T20:45:35.460Z,7.05
2023-02-11T20:48:08.261Z,7.43
2023-02-11T20:50:40.937Z,5.53
2023-02-11T20:53:13.730Z,5.40
2023-02-11T20:55:46.313Z,4.50
2023-02-11T20:58:19.052Z,4.57
2023-02-11T21:00:51.517Z,3.15
2023-02-11T21:03:24.307Z,3.40
2023-02-11T21:05:58.923Z,3.15
2023-02-11T21:08:31.864Z,3.00
2023-02-11T21:11:08.537Z,3.22
2023-02-11T21:13:42.686Z,4.95
2023-02-11T21:16:17.356Z,3.97
2023-02-11T21:18:51.130Z,3.38
2023-02-11T21:21:24.398Z,3.20
2023-02-11T21:23:58.491Z,3.08
2023-02-11T21:26:31.037Z,2.75
2023-02-11T21:29:05.402Z,2.70
2023-02-11T21:31:38.727Z,3.53
2023-02-11T21:34:11.654Z,3.67
2023-02-11T21:36:45.300Z,3.60
2023-02-11T21:39:19.328Z,3.60
2023-02-11T21:41:52.272Z,3.08
2023-02-11T21:44:25.243Z,3.58
2023-02-11T21:46:57.954Z,4.03
2023-02-11T21:49:30.766Z,2.28
2023-02-11T21:52:03.387Z,2.20
2023-02-11T21:54:36.155Z,2.42
2023-02-11T21:57:08.659Z,2.28
2023-02-11T21:59:41.810Z,3.08
2023-02-11T22:02:14.363Z,2.60
2023-02-11T22:04:47.287Z,1.48
2023-02-11T22:07:20.672Z,1.70
2023-02-11T22:09:55.750Z,1.75
2023-02-11T22:12:28.268Z,1.13
2023-02-11T22:15:01.040Z,1.40
2023-02-11T22:17:34.608Z,2.20
2023-02-11T22:20:08.420Z,2.00
2023-02-11T22:22:40.903Z,1.05
2023-02-11T22:25:13.809Z,0.77
2023-02-11T22:27:46.323Z,0.93
2023-02-11T22:30:19.279Z,0.90
2023-02-11T22:32:51.822Z,1.45
2023-02-11T22:35:24.576Z,1.48
2023-02-11T22:37:57.274Z,1.40
2023-02-11T22:40:30.025Z,0.60
2023-02-11T22:43:02.513Z,0.50
2023-02-11T22:45:35.461Z,0.82
2023-02-11T22:48:07.956Z,1.13
2023-02-11T22:50:40.821Z,1.58
2023-02-11T22:53:13.370Z,1.05
2023-02-11T22:55:46.224Z,2.22
2023-02-11T22:58:18.910Z,1.17
2023-02-11T23:00:51.912Z,1.50
2023-02-11T23:03:24.643Z,1.30
2023-02-11T23:05:59.342Z,1.35
2023-02-11T23:08:32.789Z,1.65
2023-02-11T23:11:17.394Z,2.30
2023-02-11T23:13:51.510Z,1.90
2023-02-11T23:16:35.146Z,2.80
2023-02-11T23:19:09.130Z,1.42
2023-02-11T23:21:42.105Z,1.80
2023-02-11T23:24:15.229Z,1.17
2023-02-11T23:26:48.345Z,2.10
2023-02-11T23:29:20.933Z,3.42
2023-02-11T23:31:54.828Z,4.72
2023-02-11T23:34:28.865Z,5.00
2023-02-11T23:37:01.608Z,5.35
2023-02-11T23:39:34.178Z,5.03
2023-02-11T23:42:06.994Z,6.45
2023-02-11T23:44:39.531Z,7.28
2023-02-11T23:47:12.287Z,7.30
2023-02-11T23:49:44.751Z,8.82
2023-02-11T23:52:17.845Z,10.57
2023-02-11T23:54:50.585Z,8.85
2023-02-11T23:57:23.509Z,6.82
2023-02-11T23:59:55.998Z,9.52
